createdAt,value
2017-10-16T00:07:03.000Z,1014.769
2017-10-16T00:17:03.000Z,1014.779
2017-10-16T00:27:03.000Z,1014.786
2017-10-16T00:37:03.000Z,1014.71
2017-10-16T00:47:03.000Z,1014.725
2017-10-16T00:57:03.000Z,1014.71
2017-10-16T01:07:03.000Z,1014.709
2017-10-16T01:17:03.000Z,1014.622
2017-10-16T01:27:03.000Z,1014.559
2017-10-16T01:37:03.000Z,1014.502
2017-10-16T01:47:03.000Z,1014.475
2017-10-16T01:57:03.000Z,1014.362
2017-10-16T02:07:04.000Z,1014.328
2017-10-16T02:17:03.000Z,1014.35
2017-10-16T02:27:03.000Z,1014.463
2017-10-16T02:37:03.000Z,1014.405
2017-10-16T02:47:03.000Z,1014.278
2017-10-16T02:57:04.000Z,1014.304
2017-10-16T03:07:03.000Z,1014.3
2017-10-16T03:17:03.000Z,1014.452
2017-10-16T03:27:03.000Z,1014.378
2017-10-16T03:37:03.000Z,1014.314
2017-10-16T03:47:03.000Z,1014.385
2017-10-16T03:57:03.000Z,1014.385
2017-10-16T04:07:03.000Z,1014.423
2017-10-16T04:17:03.000Z,1014.425
2017-10-16T04:27:04.000Z,1014.414
2017-10-16T04:37:04.000Z,1014.325
2017-10-16T04:47:04.000Z,1014.206
2017-10-16T04:57:04.000Z,1014.187
2017-10-16T05:07:04.000Z,1014.128
2017-10-16T05:17:04.000Z,1014.089
2017-10-16T05:27:04.000Z,1013.983
2017-10-16T05:37:04.000Z,1013.908
2017-10-16T05:47:04.000Z,1013.89
2017-10-16T05:57:04.000Z,1013.916
2017-10-16T06:07:04.000Z,1013.924
2017-10-16T06:17:04.000Z,1014.005
2017-10-16T06:27:04.000Z,1013.915
2017-10-16T06:37:04.000Z,1013.9
2017-10-16T06:47:04.000Z,1014.016
2017-10-16T06:57:04.000Z,1013.884
2017-10-16T07:07:04.000Z,1013.87
2017-10-16T07:17:04.000Z,1013.918
2017-10-16T07:27:04.000Z,1014.029
2017-10-16T07:37:04.000Z,1014.351
2017-10-16T07:47:04.000Z,1014.686
2017-10-16T07:57:04.000Z,1014.726
2017-10-16T08:07:04.000Z,1014.848
2017-10-16T08:17:04.000Z,1014.985
2017-10-16T08:27:04.000Z,1015.034
2017-10-16T08:37:04.000Z,1015.102
2017-10-16T08:47:04.000Z,1015.21
2017-10-16T08:57:04.000Z,1015.228
2017-10-16T09:07:04.000Z,1015.239
2017-10-16T09:17:04.000Z,1015.211
2017-10-16T09:27:04.000Z,1015.126
2017-10-16T09:37:04.000Z,1015.122
2017-10-16T09:47:04.000Z,1015.181
2017-10-16T09:57:04.000Z,1015.092
2017-10-16T10:07:04.000Z,1015.15
2017-10-16T10:17:04.000Z,1015.038
2017-10-16T10:27:04.000Z,1015.004
2017-10-16T10:37:04.000Z,1015.002
2017-10-16T10:47:04.000Z,1014.949
2017-10-16T10:57:04.000Z,1014.897
2017-10-16T11:07:04.000Z,1014.892
2017-10-16T11:17:04.000Z,1014.929
2017-10-16T11:27:04.000Z,1014.949
2017-10-16T11:37:04.000Z,1014.95
2017-10-16T11:47:04.000Z,1014.81
2017-10-16T11:57:04.000Z,1014.773
2017-10-16T12:07:04.000Z,1014.648
2017-10-16T12:17:04.000Z,1014.549
2017-10-16T12:27:04.000Z,1014.421
2017-10-16T12:37:04.000Z,1014.371
2017-10-16T12:47:04.000Z,1014.415
2017-10-16T12:57:04.000Z,1014.449
2017-10-16T13:07:05.000Z,1014.308
2017-10-16T13:17:05.000Z,1014.217
2017-10-16T13:27:05.000Z,1014.154
2017-10-16T13:37:05.000Z,1014.12
2017-10-16T13:47:05.000Z,1014.112
2017-10-16T13:57:05.000Z,1014.045
2017-10-16T14:07:05.000Z,1013.971
2017-10-16T14:17:06.000Z,1013.929
2017-10-16T14:27:05.000Z,1013.841
2017-10-16T14:37:05.000Z,1013.793
2017-10-16T14:47:05.000Z,1013.734
2017-10-16T14:57:05.000Z,1013.704
2017-10-16T15:07:05.000Z,1013.577
2017-10-16T15:17:05.000Z,1013.443
2017-10-16T15:27:05.000Z,1013.381
2017-10-16T15:37:05.000Z,1013.366
2017-10-16T15:47:05.000Z,1013.335
2017-10-16T15:57:05.000Z,1013.171
2017-10-16T16:07:05.000Z,1013.098
2017-10-16T16:17:05.000Z,1013.083
2017-10-16T16:27:05.000Z,1013.228
2017-10-16T16:37:05.000Z,1013.417
2017-10-16T16:47:05.000Z,1013.445
2017-10-16T16:57:05.000Z,1013.376
2017-10-16T17:07:05.000Z,1013.474
2017-10-16T17:17:05.000Z,1013.618
2017-10-16T17:27:05.000Z,1013.607
2017-10-16T17:37:05.000Z,1013.617
2017-10-16T17:47:05.000Z,1013.471
2017-10-16T17:57:05.000Z,1013.319
2017-10-16T18:07:05.000Z,1013.331
2017-10-16T18:17:05.000Z,1013.457
2017-10-16T18:27:06.000Z,1013.453
2017-10-16T18:37:05.000Z,1013.471
2017-10-16T18:47:05.000Z,1013.411
2017-10-16T18:57:05.000Z,1013.353
2017-10-16T19:07:06.000Z,1013.258
2017-10-16T19:17:05.000Z,1013.247
2017-10-16T19:27:06.000Z,1013.261
2017-10-16T19:37:05.000Z,1013.29
2017-10-16T19:47:06.000Z,1013.31
2017-10-16T19:57:07.000Z,1013.348
2017-10-16T20:07:05.000Z,1013.462
2017-10-16T20:17:09.000Z,1013.516
2017-10-16T20:27:08.000Z,1013.433
2017-10-16T20:37:05.000Z,1013.466
2017-10-16T20:47:05.000Z,1013.628
2017-10-16T20:57:05.000Z,1013.616
2017-10-16T21:07:05.000Z,1013.63
2017-10-16T21:17:05.000Z,1013.653
2017-10-16T21:37:06.000Z,1013.595
2017-10-16T21:47:06.000Z,1013.647
2017-10-16T21:57:07.000Z,1013.537
2017-10-16T22:07:06.000Z,1013.497
2017-10-16T22:17:06.000Z,1013.443
2017-10-16T22:27:06.000Z,1013.401
2017-10-16T22:37:06.000Z,1013.384
2017-10-16T22:47:06.000Z,1013.384
2017-10-16T22:57:06.000Z,1013.334
2017-10-16T23:07:06.000Z,1013.37
2017-10-16T23:17:06.000Z,1013.318
2017-10-16T23:27:06.000Z,1013.34
2017-10-16T23:37:06.000Z,1013.359
2017-10-16T23:47:06.000Z,1013.443
2017-10-16T23:57:06.000Z,1013.409
